sensor_id;sensor_type;location;lat;lon;timestamp;temperature;humidity
16999;DHT22;10211;49.476;11.010;2022-11-15T00:00:48;6.00;99.90
16999;DHT22;10211;49.476;11.010;2022-11-15T00:03:15;6.00;99.90
16999;DHT22;10211;49.476;11.010;2022-11-15T00:05:44;6.00;99.90
16999;DHT22;10211;49.476;11.010;2022-11-15T00:08:11;5.90;99.90
16999;DHT22;10211;49.476;11.010;2022-11-15T00:10:38;5.90;99.90
16999;DHT22;10211;49.476;11.010;2022-11-15T00:13:06;5.90;99.90
16999;DHT22;10211;49.476;11.010;2022-11-15T00:15:35;5.90;99.90
16999;DHT22;10211;49.476;11.010;2022-11-15T00:18:06;6.00;99.90
16999;DHT22;10211;49.476;11.010;2022-11-15T00:20:38;6.00;99.90
16999;DHT22;10211;49.476;11.010;2022-11-15T00:23:07;6.10;99.90
16999;DHT22;10211;49.476;11.010;2022-11-15T00:25:34;6.20;99.90
16999;DHT22;10211;49.476;11.010;2022-11-15T00:28:01;6.30;99.90
16999;DHT22;10211;49.476;11.010;2022-11-15T00:30:28;6.30;99.90
16999;DHT22;10211;49.476;11.010;2022-11-15T00:32:55;6.30;99.90
16999;DHT22;10211;49.476;11.010;2022-11-15T00:35:23;6.40;99.90
16999;DHT22;10211;49.476;11.010;2022-11-15T00:37:52;6.30;99.90
16999;DHT22;10211;49.476;11.010;2022-11-15T00:40:20;6.30;99.90
16999;DHT22;10211;49.476;11.010;2022-11-15T00:42:47;6.30;99.90
16999;DHT22;10211;49.476;11.010;2022-11-15T00:45:14;6.20;99.90
16999;DHT22;10211;49.476;11.010;2022-11-15T00:47:40;6.10;99.90
16999;DHT22;10211;49.476;11.010;2022-11-15T00:50:10;6.10;99.90
16999;DHT22;10211;49.476;11.010;2022-11-15T00:52:36;6.00;99.90
16999;DHT22;10211;49.476;11.010;2022-11-15T00:55:04;5.90;99.90
16999;DHT22;10211;49.476;11.010;2022-11-15T00:57:32;5.90;99.90
16999;DHT22;10211;49.476;11.010;2022-11-15T00:59:59;5.80;99.90
16999;DHT22;10211;49.476;11.010;2022-11-15T01:02:26;5.80;99.90
16999;DHT22;10211;49.476;11.010;2022-11-15T01:04:53;5.80;99.90
16999;DHT22;10211;49.476;11.010;2022-11-15T01:07:20;5.80;99.90
16999;DHT22;10211;49.476;11.010;2022-11-15T01:09:47;5.80;99.90
16999;DHT22;10211;49.476;11.010;2022-11-15T01:12:13;5.80;99.90
16999;DHT22;10211;49.476;11.010;2022-11-15T01:14:42;5.80;99.90
16999;DHT22;10211;49.476;11.010;2022-11-15T01:17:09;5.90;99.90
16999;DHT22;10211;49.476;11.010;2022-11-15T01:19:36;5.90;99.90
16999;DHT22;10211;49.476;11.010;2022-11-15T01:22:03;6.00;99.90
16999;DHT22;10211;49.476;11.010;2022-11-15T01:24:30;6.00;99.90
16999;DHT22;10211;49.476;11.010;2022-11-15T01:26:57;6.00;99.90
16999;DHT22;10211;49.476;11.010;2022-11-15T01:29:24;6.00;99.90
16999;DHT22;10211;49.476;11.010;2022-11-15T01:31:52;5.90;99.90
16999;DHT22;10211;49.476;11.010;2022-11-15T01:34:19;5.90;99.90
16999;DHT22;10211;49.476;11.010;2022-11-15T01:36:46;5.90;99.90
16999;DHT22;10211;49.476;11.010;2022-11-15T01:39:13;5.90;99.90
16999;DHT22;10211;49.476;11.010;2022-11-15T01:41:41;5.80;99.90
16999;DHT22;10211;49.476;11.010;2022-11-15T01:44:40;5.80;99.90
16999;DHT22;10211;49.476;11.010;2022-11-15T01:47:12;5.80;99.90
16999;DHT22;10211;49.476;11.010;2022-11-15T01:49:45;5.70;99.90
16999;DHT22;10211;49.476;11.010;2022-11-15T01:52:18;5.70;99.90
16999;DHT22;10211;49.476;11.010;2022-11-15T01:54:46;5.70;99.90
16999;DHT22;10211;49.476;11.010;2022-11-15T01:57:13;5.60;99.90
16999;DHT22;10211;49.476;11.010;2022-11-15T01:59:43;5.60;99.90
16999;DHT22;10211;49.476;11.010;2022-11-15T02:02:12;5.70;99.90
16999;DHT22;10211;49.476;11.010;2022-11-15T02:04:41;5.70;99.90
16999;DHT22;10211;49.476;11.010;2022-11-15T02:07:12;5.70;99.90
16999;DHT22;10211;49.476;11.010;2022-11-15T02:09:40;5.80;99.90
16999;DHT22;10211;49.476;11.010;2022-11-15T02:12:08;5.80;99.90
16999;DHT22;10211;49.476;11.010;2022-11-15T02:14:36;5.80;99.90
16999;DHT22;10211;49.476;11.010;2022-11-15T02:17:25;5.80;99.90
16999;DHT22;10211;49.476;11.010;2022-11-15T02:20:16;5.70;99.90
16999;DHT22;10211;49.476;11.010;2022-11-15T02:22:57;5.70;99.90
16999;DHT22;10211;49.476;11.010;2022-11-15T02:25:39;5.50;99.90
16999;DHT22;10211;49.476;11.010;2022-11-15T02:28:21;5.60;99.90
16999;DHT22;10211;49.476;11.010;2022-11-15T02:31:01;5.50;99.90
16999;DHT22;10211;49.476;11.010;2022-11-15T02:33:35;5.50;99.90
16999;DHT22;10211;49.476;11.010;2022-11-15T02:36:07;5.40;99.90
16999;DHT22;10211;49.476;11.010;2022-11-15T02:38:43;5.40;99.90
16999;DHT22;10211;49.476;11.010;2022-11-15T02:41:16;5.30;99.90
16999;DHT22;10211;49.476;11.010;2022-11-15T02:43:47;5.20;99.90
16999;DHT22;10211;49.476;11.010;2022-11-15T02:46:29;5.20;99.90
16999;DHT22;10211;49.476;11.010;2022-11-15T02:49:15;5.10;99.90
16999;DHT22;10211;49.476;11.010;2022-11-15T02:51:44;5.00;99.90
16999;DHT22;10211;49.476;11.010;2022-11-15T02:54:12;4.90;99.90
16999;DHT22;10211;49.476;11.010;2022-11-15T02:56:40;4.90;99.90
16999;DHT22;10211;49.476;11.010;2022-11-15T02:59:43;4.80;99.90
16999;DHT22;10211;49.476;11.010;2022-11-15T03:02:29;4.70;99.90
16999;DHT22;10211;49.476;11.010;2022-11-15T03:05:04;4.70;99.90
16999;DHT22;10211;49.476;11.010;2022-11-15T03:07:38;4.60;99.90
16999;DHT22;10211;49.476;11.010;2022-11-15T03:10:12;4.70;99.90
16999;DHT22;10211;49.476;11.010;2022-11-15T03:12:43;4.70;99.90
16999;DHT22;10211;49.476;11.010;2022-11-15T03:15:17;4.70;99.90
16999;DHT22;10211;49.476;11.010;2022-11-15T03:17:52;4.60;99.90
16999;DHT22;10211;49.476;11.010;2022-11-15T03:20:22;4.60;99.90
16999;DHT22;10211;49.476;11.010;2022-11-15T03:22:51;4.50;99.90
16999;DHT22;10211;49.476;11.010;2022-11-15T03:25:23;4.50;99.90
16999;DHT22;10211;49.476;11.010;2022-11-15T03:27:52;4.40;99.90
16999;DHT22;10211;49.476;11.010;2022-11-15T03:30:20;4.40;99.90
16999;DHT22;10211;49.476;11.010;2022-11-15T03:32:53;4.40;99.90
16999;DHT22;10211;49.476;11.010;2022-11-15T03:35:22;4.40;99.90
16999;DHT22;10211;49.476;11.010;2022-11-15T03:37:53;4.30;99.90
16999;DHT22;10211;49.476;11.010;2022-11-15T03:40:25;4.30;99.90
16999;DHT22;10211;49.476;11.010;2022-11-15T03:42:58;4.30;99.90
16999;DHT22;10211;49.476;11.010;2022-11-15T03:45:29;4.20;99.90
16999;DHT22;10211;49.476;11.010;2022-11-15T03:48:02;4.20;99.90
16999;DHT22;10211;49.476;11.010;2022-11-15T03:50:32;4.10;99.90
16999;DHT22;10211;49.476;11.010;2022-11-15T03:53:12;4.10;99.90
16999;DHT22;10211;49.476;11.010;2022-11-15T03:55:40;4.10;99.90
16999;DHT22;10211;49.476;11.010;2022-11-15T03:58:07;4.10;99.90
16999;DHT22;10211;49.476;11.010;2022-11-15T04:00:34;4.10;99.90
16999;DHT22;10211;49.476;11.010;2022-11-15T04:03:11;4.00;99.90
16999;DHT22;10211;49.476;11.010;2022-11-15T04:05:38;4.00;99.90
16999;DHT22;10211;49.476;11.010;2022-11-15T04:08:05;3.90;99.90
16999;DHT22;10211;49.476;11.010;2022-11-15T04:10:31;3.90;99.90
16999;DHT22;10211;49.476;11.010;2022-11-15T04:13:01;3.90;99.90
16999;DHT22;10211;49.476;11.010;2022-11-15T04:15:28;3.70;99.90
16999;DHT22;10211;49.476;11.010;2022-11-15T04:17:56;3.70;99.90
16999;DHT22;10211;49.476;11.010;2022-11-15T04:20:26;3.70;99.90
16999;DHT22;10211;49.476;11.010;2022-11-15T04:23:13;3.60;99.90
16999;DHT22;10211;49.476;11.010;2022-11-15T04:26:00;3.70;99.90
16999;DHT22;10211;49.476;11.010;2022-11-15T04:28:27;3.60;99.90
16999;DHT22;10211;49.476;11.010;2022-11-15T04:30:54;3.60;99.90
16999;DHT22;10211;49.476;11.010;2022-11-15T04:33:21;3.60;99.90
16999;DHT22;10211;49.476;11.010;2022-11-15T04:35:50;3.60;99.90
16999;DHT22;10211;49.476;11.010;2022-11-15T04:38:30;3.50;99.90
16999;DHT22;10211;49.476;11.010;2022-11-15T04:40:57;3.60;99.90
16999;DHT22;10211;49.476;11.010;2022-11-15T04:43:24;3.60;99.90
16999;DHT22;10211;49.476;11.010;2022-11-15T04:45:51;3.60;99.90
16999;DHT22;10211;49.476;11.010;2022-11-15T04:48:18;3.60;99.90
16999;DHT22;10211;49.476;11.010;2022-11-15T04:50:47;3.60;99.90
16999;DHT22;10211;49.476;11.010;2022-11-15T04:53:15;3.60;99.90
16999;DHT22;10211;49.476;11.010;2022-11-15T04:55:44;3.60;99.90
16999;DHT22;10211;49.476;11.010;2022-11-15T04:58:11;3.60;99.90
16999;DHT22;10211;49.476;11.010;2022-11-15T05:00:38;3.70;99.90
16999;DHT22;10211;49.476;11.010;2022-11-15T05:03:05;3.60;99.90
16999;DHT22;10211;49.476;11.010;2022-11-15T05:05:49;3.60;99.90
16999;DHT22;10211;49.476;11.010;2022-11-15T05:08:17;3.60;99.90
16999;DHT22;10211;49.476;11.010;2022-11-15T05:10:44;3.60;99.90
16999;DHT22;10211;49.476;11.010;2022-11-15T05:13:10;3.60;99.90
16999;DHT22;10211;49.476;11.010;2022-11-15T05:15:37;3.50;99.90
16999;DHT22;10211;49.476;11.010;2022-11-15T05:18:04;3.50;99.90
16999;DHT22;10211;49.476;11.010;2022-11-15T05:20:31;3.50;99.90
16999;DHT22;10211;49.476;11.010;2022-11-15T05:22:57;3.40;99.90
16999;DHT22;10211;49.476;11.010;2022-11-15T05:25:26;3.40;99.90
16999;DHT22;10211;49.476;11.010;2022-11-15T05:27:53;3.40;99.90
16999;DHT22;10211;49.476;11.010;2022-11-15T05:30:21;3.30;99.90
16999;DHT22;10211;49.476;11.010;2022-11-15T05:32:48;3.30;99.90
16999;DHT22;10211;49.476;11.010;2022-11-15T05:35:21;3.30;99.90
16999;DHT22;10211;49.476;11.010;2022-11-15T05:37:52;3.20;99.90
16999;DHT22;10211;49.476;11.010;2022-11-15T05:40:19;3.20;99.90
16999;DHT22;10211;49.476;11.010;2022-11-15T05:42:47;3.20;99.90
16999;DHT22;10211;49.476;11.010;2022-11-15T05:45:15;3.10;99.90
16999;DHT22;10211;49.476;11.010;2022-11-15T05:47:43;3.10;99.90
16999;DHT22;10211;49.476;11.010;2022-11-15T05:50:12;3.10;99.90
16999;DHT22;10211;49.476;11.010;2022-11-15T05:52:40;3.10;99.90
16999;DHT22;10211;49.476;11.010;2022-11-15T05:55:09;3.10;99.90
16999;DHT22;10211;49.476;11.010;2022-11-15T05:57:36;3.10;99.90
16999;DHT22;10211;49.476;11.010;2022-11-15T06:00:06;3.10;99.90
16999;DHT22;10211;49.476;11.010;2022-11-15T06:02:35;3.00;99.90
16999;DHT22;10211;49.476;11.010;2022-11-15T06:05:02;3.00;99.90
16999;DHT22;10211;49.476;11.010;2022-11-15T06:07:29;3.00;99.90
16999;DHT22;10211;49.476;11.010;2022-11-15T06:09:56;3.10;99.90
16999;DHT22;10211;49.476;11.010;2022-11-15T06:12:23;3.10;99.90
16999;DHT22;10211;49.476;11.010;2022-11-15T06:14:50;3.10;99.90
16999;DHT22;10211;49.476;11.010;2022-11-15T06:17:18;3.00;99.90
16999;DHT22;10211;49.476;11.010;2022-11-15T06:19:44;3.00;99.90
16999;DHT22;10211;49.476;11.010;2022-11-15T06:22:11;3.00;99.90
16999;DHT22;10211;49.476;11.010;2022-11-15T06:24:38;3.00;99.90
16999;DHT22;10211;49.476;11.010;2022-11-15T06:27:05;2.90;99.90
16999;DHT22;10211;49.476;11.010;2022-11-15T06:29:31;3.00;99.90
16999;DHT22;10211;49.476;11.010;2022-11-15T06:31:58;3.00;99.90
16999;DHT22;10211;49.476;11.010;2022-11-15T06:34:27;3.00;99.90
16999;DHT22;10211;49.476;11.010;2022-11-15T06:36:54;2.90;99.90
16999;DHT22;10211;49.476;11.010;2022-11-15T06:39:21;3.00;99.90
16999;DHT22;10211;49.476;11.010;2022-11-15T06:41:48;3.00;99.90
16999;DHT22;10211;49.476;11.010;2022-11-15T06:44:14;3.00;99.90
16999;DHT22;10211;49.476;11.010;2022-11-15T06:46:41;3.00;99.90
16999;DHT22;10211;49.476;11.010;2022-11-15T06:49:08;3.10;99.90
16999;DHT22;10211;49.476;11.010;2022-11-15T06:51:36;3.10;99.90
16999;DHT22;10211;49.476;11.010;2022-11-15T06:54:03;3.10;99.90
16999;DHT22;10211;49.476;11.010;2022-11-15T06:56:30;3.20;99.90
16999;DHT22;10211;49.476;11.010;2022-11-15T06:58:57;3.30;99.90
16999;DHT22;10211;49.476;11.010;2022-11-15T07:01:24;3.40;99.90
16999;DHT22;10211;49.476;11.010;2022-11-15T07:03:51;3.60;99.90
16999;DHT22;10211;49.476;11.010;2022-11-15T07:06:19;3.60;99.90
16999;DHT22;10211;49.476;11.010;2022-11-15T07:08:47;3.70;99.90
16999;DHT22;10211;49.476;11.010;2022-11-15T07:11:13;3.80;99.90
16999;DHT22;10211;49.476;11.010;2022-11-15T07:13:42;3.90;99.90
16999;DHT22;10211;49.476;11.010;2022-11-15T07:16:10;4.00;99.90
16999;DHT22;10211;49.476;11.010;2022-11-15T07:18:38;4.00;99.90
16999;DHT22;10211;49.476;11.010;2022-11-15T07:21:09;4.00;99.90
16999;DHT22;10211;49.476;11.010;2022-11-15T07:23:37;4.10;99.90
16999;DHT22;10211;49.476;11.010;2022-11-15T07:26:06;4.20;99.90
16999;DHT22;10211;49.476;11.010;2022-11-15T07:28:33;4.30;99.90
16999;DHT22;10211;49.476;11.010;2022-11-15T07:31:02;4.30;99.90
16999;DHT22;10211;49.476;11.010;2022-11-15T07:33:29;4.40;99.90
16999;DHT22;10211;49.476;11.010;2022-11-15T07:35:59;4.50;99.90
16999;DHT22;10211;49.476;11.010;2022-11-15T07:38:27;4.50;99.90
16999;DHT22;10211;49.476;11.010;2022-11-15T07:40:56;4.60;99.90
16999;DHT22;10211;49.476;11.010;2022-11-15T07:43:26;4.70;99.90
16999;DHT22;10211;49.476;11.010;2022-11-15T07:45:55;4.70;99.90
16999;DHT22;10211;49.476;11.010;2022-11-15T07:48:22;4.80;99.90
16999;DHT22;10211;49.476;11.010;2022-11-15T07:50:51;4.90;99.90
16999;DHT22;10211;49.476;11.010;2022-11-15T07:53:18;4.90;99.90
16999;DHT22;10211;49.476;11.010;2022-11-15T07:55:51;5.00;99.90
16999;DHT22;10211;49.476;11.010;2022-11-15T07:58:19;5.10;99.90
16999;DHT22;10211;49.476;11.010;2022-11-15T08:00:48;5.20;99.90
16999;DHT22;10211;49.476;11.010;2022-11-15T08:03:16;5.30;99.90
16999;DHT22;10211;49.476;11.010;2022-11-15T08:05:50;5.40;99.90
16999;DHT22;10211;49.476;11.010;2022-11-15T08:08:37;5.50;99.90
16999;DHT22;10211;49.476;11.010;2022-11-15T08:11:04;5.60;99.90
16999;DHT22;10211;49.476;11.010;2022-11-15T08:13:31;5.70;99.90
16999;DHT22;10211;49.476;11.010;2022-11-15T08:16:00;5.80;99.90
16999;DHT22;10211;49.476;11.010;2022-11-15T08:18:28;5.80;99.90
16999;DHT22;10211;49.476;11.010;2022-11-15T08:20:58;5.90;99.90
16999;DHT22;10211;49.476;11.010;2022-11-15T08:23:25;6.00;99.90
16999;DHT22;10211;49.476;11.010;2022-11-15T08:25:58;6.10;99.90
16999;DHT22;10211;49.476;11.010;2022-11-15T08:28:25;6.20;99.90
16999;DHT22;10211;49.476;11.010;2022-11-15T08:30:52;6.30;99.90
16999;DHT22;10211;49.476;11.010;2022-11-15T08:33:20;6.40;99.90
16999;DHT22;10211;49.476;11.010;2022-11-15T08:35:47;6.50;99.90
16999;DHT22;10211;49.476;11.010;2022-11-15T08:38:14;6.60;99.90
16999;DHT22;10211;49.476;11.010;2022-11-15T08:40:42;6.70;99.90
16999;DHT22;10211;49.476;11.010;2022-11-15T08:43:09;7.00;99.90
16999;DHT22;10211;49.476;11.010;2022-11-15T08:45:35;6.90;99.90
16999;DHT22;10211;49.476;11.010;2022-11-15T08:48:03;7.00;99.90
16999;DHT22;10211;49.476;11.010;2022-11-15T08:50:31;7.20;99.90
16999;DHT22;10211;49.476;11.010;2022-11-15T08:53:04;7.30;99.90
16999;DHT22;10211;49.476;11.010;2022-11-15T08:55:31;7.40;99.90
16999;DHT22;10211;49.476;11.010;2022-11-15T08:57:58;7.50;99.90
16999;DHT22;10211;49.476;11.010;2022-11-15T09:00:24;7.60;99.90
16999;DHT22;10211;49.476;11.010;2022-11-15T09:02:51;7.80;99.90
16999;DHT22;10211;49.476;11.010;2022-11-15T09:05:18;8.00;99.90
16999;DHT22;10211;49.476;11.010;2022-11-15T09:07:46;8.10;99.90
16999;DHT22;10211;49.476;11.010;2022-11-15T09:10:13;8.20;99.90
16999;DHT22;10211;49.476;11.010;2022-11-15T09:12:41;8.40;99.90
16999;DHT22;10211;49.476;11.010;2022-11-15T09:15:09;8.50;99.90
16999;DHT22;10211;49.476;11.010;2022-11-15T09:17:36;8.70;99.90
16999;DHT22;10211;49.476;11.010;2022-11-15T09:20:03;8.90;99.90
16999;DHT22;10211;49.476;11.010;2022-11-15T09:22:31;9.00;99.90
16999;DHT22;10211;49.476;11.010;2022-11-15T09:24:59;9.20;99.90
16999;DHT22;10211;49.476;11.010;2022-11-15T09:27:27;9.30;99.90
16999;DHT22;10211;49.476;11.010;2022-11-15T09:29:54;9.50;99.90
16999;DHT22;10211;49.476;11.010;2022-11-15T09:32:21;9.70;99.90
16999;DHT22;10211;49.476;11.010;2022-11-15T09:34:48;9.80;99.90
16999;DHT22;10211;49.476;11.010;2022-11-15T09:37:15;10.00;99.90
16999;DHT22;10211;49.476;11.010;2022-11-15T09:39:42;10.10;99.90
16999;DHT22;10211;49.476;11.010;2022-11-15T09:42:22;10.20;99.90
16999;DHT22;10211;49.476;11.010;2022-11-15T09:45:14;10.30;99.90
16999;DHT22;10211;49.476;11.010;2022-11-15T09:48:18;10.40;99.90
16999;DHT22;10211;49.476;11.010;2022-11-15T09:50:49;10.50;99.90
16999;DHT22;10211;49.476;11.010;2022-11-15T09:53:26;10.60;99.90
16999;DHT22;10211;49.476;11.010;2022-11-15T09:55:59;10.60;99.90
16999;DHT22;10211;49.476;11.010;2022-11-15T09:58:35;10.70;99.90
16999;DHT22;10211;49.476;11.010;2022-11-15T10:01:06;10.70;99.90
16999;DHT22;10211;49.476;11.010;2022-11-15T10:03:36;10.80;99.90
16999;DHT22;10211;49.476;11.010;2022-11-15T10:06:05;10.80;99.90
16999;DHT22;10211;49.476;11.010;2022-11-15T10:08:54;10.80;99.90
16999;DHT22;10211;49.476;11.010;2022-11-15T10:11:25;10.90;99.90
16999;DHT22;10211;49.476;11.010;2022-11-15T10:13:57;10.90;99.90
16999;DHT22;10211;49.476;11.010;2022-11-15T10:16:56;10.90;99.90
16999;DHT22;10211;49.476;11.010;2022-11-15T10:19:30;11.00;99.90
16999;DHT22;10211;49.476;11.010;2022-11-15T10:22:16;11.10;99.90
16999;DHT22;10211;49.476;11.010;2022-11-15T10:24:46;11.20;99.90
16999;DHT22;10211;49.476;11.010;2022-11-15T10:27:15;11.20;99.90
16999;DHT22;10211;49.476;11.010;2022-11-15T10:29:45;11.30;99.90
16999;DHT22;10211;49.476;11.010;2022-11-15T10:32:14;11.40;99.90
16999;DHT22;10211;49.476;11.010;2022-11-15T10:34:41;11.60;99.90
16999;DHT22;10211;49.476;11.010;2022-11-15T10:37:10;11.70;99.90
16999;DHT22;10211;49.476;11.010;2022-11-15T10:39:37;11.90;99.90
16999;DHT22;10211;49.476;11.010;2022-11-15T10:42:22;12.10;99.90
16999;DHT22;10211;49.476;11.010;2022-11-15T10:44:53;12.40;99.90
16999;DHT22;10211;49.476;11.010;2022-11-15T10:47:26;13.50;99.90
16999;DHT22;10211;49.476;11.010;2022-11-15T10:50:03;16.70;99.90
16999;DHT22;10211;49.476;11.010;2022-11-15T10:52:31;21.00;94.10
16999;DHT22;10211;49.476;11.010;2022-11-15T10:55:02;24.40;76.20
16999;DHT22;10211;49.476;11.010;2022-11-15T10:57:32;27.00;65.50
16999;DHT22;10211;49.476;11.010;2022-11-15T11:00:05;29.20;59.50
16999;DHT22;10211;49.476;11.010;2022-11-15T11:02:35;30.30;52.40
16999;DHT22;10211;49.476;11.010;2022-11-15T11:05:05;30.80;49.80
16999;DHT22;10211;49.476;11.010;2022-11-15T11:07:34;30.80;49.20
16999;DHT22;10211;49.476;11.010;2022-11-15T11:10:04;31.20;48.20
16999;DHT22;10211;49.476;11.010;2022-11-15T11:12:33;31.10;47.00
16999;DHT22;10211;49.476;11.010;2022-11-15T11:15:10;30.50;48.60
16999;DHT22;10211;49.476;11.010;2022-11-15T11:17:53;29.10;49.20
16999;DHT22;10211;49.476;11.010;2022-11-15T11:20:26;27.50;51.10
16999;DHT22;10211;49.476;11.010;2022-11-15T11:23:03;25.80;53.00
16999;DHT22;10211;49.476;11.010;2022-11-15T11:25:34;24.30;54.60
16999;DHT22;10211;49.476;11.010;2022-11-15T11:28:15;23.30;55.90
16999;DHT22;10211;49.476;11.010;2022-11-15T11:30:57;22.10;57.80
16999;DHT22;10211;49.476;11.010;2022-11-15T11:33:29;21.30;58.70
16999;DHT22;10211;49.476;11.010;2022-11-15T11:36:07;20.60;59.70
16999;DHT22;10211;49.476;11.010;2022-11-15T11:38:53;20.00;61.70
16999;DHT22;10211;49.476;11.010;2022-11-15T11:41:39;19.70;63.00
16999;DHT22;10211;49.476;11.010;2022-11-15T11:44:27;19.20;64.50
16999;DHT22;10211;49.476;11.010;2022-11-15T11:47:00;18.50;65.30
16999;DHT22;10211;49.476;11.010;2022-11-15T11:49:31;18.00;68.10
16999;DHT22;10211;49.476;11.010;2022-11-15T11:52:04;17.50;68.10
16999;DHT22;10211;49.476;11.010;2022-11-15T11:54:40;17.20;69.70
16999;DHT22;10211;49.476;11.010;2022-11-15T11:57:13;17.00;71.20
16999;DHT22;10211;49.476;11.010;2022-11-15T11:59:45;16.70;71.30
16999;DHT22;10211;49.476;11.010;2022-11-15T12:02:18;16.60;71.70
16999;DHT22;10211;49.476;11.010;2022-11-15T12:04:50;16.50;72.50
16999;DHT22;10211;49.476;11.010;2022-11-15T12:07:21;16.60;72.80
16999;DHT22;10211;49.476;11.010;2022-11-15T12:09:55;16.50;73.50
16999;DHT22;10211;49.476;11.010;2022-11-15T12:12:27;16.50;73.40
16999;DHT22;10211;49.476;11.010;2022-11-15T12:14:59;16.40;73.40
16999;DHT22;10211;49.476;11.010;2022-11-15T12:17:32;16.30;74.40
16999;DHT22;10211;49.476;11.010;2022-11-15T12:20:00;16.10;74.70
16999;DHT22;10211;49.476;11.010;2022-11-15T12:22:36;16.00;76.50
16999;DHT22;10211;49.476;11.010;2022-11-15T12:25:13;16.00;76.40
16999;DHT22;10211;49.476;11.010;2022-11-15T12:27:44;15.90;76.50
16999;DHT22;10211;49.476;11.010;2022-11-15T12:30:15;16.00;76.00
16999;DHT22;10211;49.476;11.010;2022-11-15T12:32:53;16.10;75.80
16999;DHT22;10211;49.476;11.010;2022-11-15T12:35:26;16.20;75.50
16999;DHT22;10211;49.476;11.010;2022-11-15T12:37:54;16.40;75.50
16999;DHT22;10211;49.476;11.010;2022-11-15T12:40:26;16.60;75.40
16999;DHT22;10211;49.476;11.010;2022-11-15T12:43:02;16.70;75.00
16999;DHT22;10211;49.476;11.010;2022-11-15T12:45:31;16.90;74.50
16999;DHT22;10211;49.476;11.010;2022-11-15T12:51:04;17.00;74.90
16999;DHT22;10211;49.476;11.010;2022-11-15T12:53:33;17.10;74.00
16999;DHT22;10211;49.476;11.010;2022-11-15T12:56:18;17.10;74.30
16999;DHT22;10211;49.476;11.010;2022-11-15T12:58:47;17.10;74.40
16999;DHT22;10211;49.476;11.010;2022-11-15T13:04:29;17.00;74.60
16999;DHT22;10211;49.476;11.010;2022-11-15T13:07:00;16.90;74.80
16999;DHT22;10211;49.476;11.010;2022-11-15T13:09:53;16.80;75.20
16999;DHT22;10211;49.476;11.010;2022-11-15T13:12:49;16.70;75.60
16999;DHT22;10211;49.476;11.010;2022-11-15T13:15:43;16.60;76.80
16999;DHT22;10211;49.476;11.010;2022-11-15T13:18:37;16.50;76.80
16999;DHT22;10211;49.476;11.010;2022-11-15T13:21:19;16.40;77.80
16999;DHT22;10211;49.476;11.010;2022-11-15T13:24:09;16.30;77.90
16999;DHT22;10211;49.476;11.010;2022-11-15T13:26:38;16.10;78.20
16999;DHT22;10211;49.476;11.010;2022-11-15T13:29:15;16.00;78.40
16999;DHT22;10211;49.476;11.010;2022-11-15T13:31:43;15.80;78.50
16999;DHT22;10211;49.476;11.010;2022-11-15T13:34:26;15.70;78.80
16999;DHT22;10211;49.476;11.010;2022-11-15T13:36:53;15.70;79.40
16999;DHT22;10211;49.476;11.010;2022-11-15T13:39:28;15.60;79.60
16999;DHT22;10211;49.476;11.010;2022-11-15T13:41:55;15.60;79.80
16999;DHT22;10211;49.476;11.010;2022-11-15T13:44:24;15.50;80.30
16999;DHT22;10211;49.476;11.010;2022-11-15T13:47:01;15.60;80.50
16999;DHT22;10211;49.476;11.010;2022-11-15T13:49:30;15.70;81.10
16999;DHT22;10211;49.476;11.010;2022-11-15T13:51:57;15.80;80.20
16999;DHT22;10211;49.476;11.010;2022-11-15T13:54:27;15.90;80.70
16999;DHT22;10211;49.476;11.010;2022-11-15T13:57:00;16.10;80.70
16999;DHT22;10211;49.476;11.010;2022-11-15T13:59:30;16.20;79.90
16999;DHT22;10211;49.476;11.010;2022-11-15T14:02:01;16.20;79.90
16999;DHT22;10211;49.476;11.010;2022-11-15T14:04:30;16.10;80.20
16999;DHT22;10211;49.476;11.010;2022-11-15T14:06:59;16.10;80.70
16999;DHT22;10211;49.476;11.010;2022-11-15T14:09:36;15.90;81.00
16999;DHT22;10211;49.476;11.010;2022-11-15T14:12:31;15.80;81.40
16999;DHT22;10211;49.476;11.010;2022-11-15T14:14:59;15.60;81.70
16999;DHT22;10211;49.476;11.010;2022-11-15T14:17:35;15.40;82.40
16999;DHT22;10211;49.476;11.010;2022-11-15T14:20:20;15.20;83.30
16999;DHT22;10211;49.476;11.010;2022-11-15T14:22:52;14.90;84.20
16999;DHT22;10211;49.476;11.010;2022-11-15T14:25:21;14.60;84.80
16999;DHT22;10211;49.476;11.010;2022-11-15T14:28:28;14.50;85.70
16999;DHT22;10211;49.476;11.010;2022-11-15T14:30:57;14.30;87.70
16999;DHT22;10211;49.476;11.010;2022-11-15T14:33:27;14.20;88.60
16999;DHT22;10211;49.476;11.010;2022-11-15T14:35:56;13.90;89.00
16999;DHT22;10211;49.476;11.010;2022-11-15T14:38:23;13.70;89.50
16999;DHT22;10211;49.476;11.010;2022-11-15T14:40:51;13.60;89.90
16999;DHT22;10211;49.476;11.010;2022-11-15T14:43:19;13.50;90.20
16999;DHT22;10211;49.476;11.010;2022-11-15T14:45:46;13.40;90.40
16999;DHT22;10211;49.476;11.010;2022-11-15T14:48:13;13.10;90.80
16999;DHT22;10211;49.476;11.010;2022-11-15T14:50:40;13.10;91.00
16999;DHT22;10211;49.476;11.010;2022-11-15T14:53:12;13.00;91.40
16999;DHT22;10211;49.476;11.010;2022-11-15T14:55:41;12.90;91.70
16999;DHT22;10211;49.476;11.010;2022-11-15T14:58:09;12.90;92.00
16999;DHT22;10211;49.476;11.010;2022-11-15T15:00:38;12.80;92.20
16999;DHT22;10211;49.476;11.010;2022-11-15T15:03:06;12.70;92.50
16999;DHT22;10211;49.476;11.010;2022-11-15T15:05:34;12.70;92.70
16999;DHT22;10211;49.476;11.010;2022-11-15T15:08:01;12.60;93.00
16999;DHT22;10211;49.476;11.010;2022-11-15T15:10:31;12.50;93.40
16999;DHT22;10211;49.476;11.010;2022-11-15T15:12:58;12.40;93.80
16999;DHT22;10211;49.476;11.010;2022-11-15T15:15:32;12.30;94.20
16999;DHT22;10211;49.476;11.010;2022-11-15T15:17:58;12.20;94.60
16999;DHT22;10211;49.476;11.010;2022-11-15T15:20:25;12.10;95.00
16999;DHT22;10211;49.476;11.010;2022-11-15T15:22:52;12.00;95.40
16999;DHT22;10211;49.476;11.010;2022-11-15T15:25:23;11.90;95.80
16999;DHT22;10211;49.476;11.010;2022-11-15T15:27:51;11.80;96.40
16999;DHT22;10211;49.476;11.010;2022-11-15T15:30:18;11.70;96.90
16999;DHT22;10211;49.476;11.010;2022-11-15T15:32:46;11.50;97.50
16999;DHT22;10211;49.476;11.010;2022-11-15T15:35:14;11.40;98.30
16999;DHT22;10211;49.476;11.010;2022-11-15T15:37:41;11.20;99.20
16999;DHT22;10211;49.476;11.010;2022-11-15T15:40:14;11.10;99.90
16999;DHT22;10211;49.476;11.010;2022-11-15T15:42:42;10.90;99.90
16999;DHT22;10211;49.476;11.010;2022-11-15T15:45:09;10.80;99.90
16999;DHT22;10211;49.476;11.010;2022-11-15T15:47:36;10.70;99.90
16999;DHT22;10211;49.476;11.010;2022-11-15T15:50:14;10.70;99.90
16999;DHT22;10211;49.476;11.010;2022-11-15T15:52:43;10.70;99.90
16999;DHT22;10211;49.476;11.010;2022-11-15T15:55:10;10.70;99.90